sensor_id;sensor_type;location;lat;lon;timestamp;pressure;altitude;pressure_sealevel;temperature;humidity
11878;BME280;5998;42.676;23.268;2023-02-03T00:02:04;95046.50;;;2.76;100.00
11878;BME280;5998;42.676;23.268;2023-02-03T00:04:31;95040.03;;;2.82;100.00
11878;BME280;5998;42.676;23.268;2023-02-03T00:06:57;95039.31;;;2.76;100.00
11878;BME280;5998;42.676;23.268;2023-02-03T00:09:26;95035.47;;;2.64;100.00
11878;BME280;5998;42.676;23.268;2023-02-03T00:11:53;95035.19;;;2.65;100.00
11878;BME280;5998;42.676;23.268;2023-02-03T00:14:19;95048.66;;;2.50;100.00
11878;BME280;5998;42.676;23.268;2023-02-03T00:16:47;95047.53;;;2.56;100.00
11878;BME280;5998;42.676;23.268;2023-02-03T00:19:13;95050.72;;;2.58;100.00
11878;BME280;5998;42.676;23.268;2023-02-03T00:21:40;95048.06;;;2.53;100.00
11878;BME280;5998;42.676;23.268;2023-02-03T00:24:07;95053.56;;;2.62;100.00
11878;BME280;5998;42.676;23.268;2023-02-03T00:26:40;95055.41;;;2.66;100.00
11878;BME280;5998;42.676;23.268;2023-02-03T00:29:07;95049.22;;;2.71;100.00
11878;BME280;5998;42.676;23.268;2023-02-03T00:31:34;95056.16;;;2.67;100.00
11878;BME280;5998;42.676;23.268;2023-02-03T00:34:01;95052.94;;;2.70;100.00
11878;BME280;5998;42.676;23.268;2023-02-03T00:36:28;95057.47;;;2.69;100.00
11878;BME280;5998;42.676;23.268;2023-02-03T00:38:54;95063.19;;;2.58;100.00
11878;BME280;5998;42.676;23.268;2023-02-03T00:41:21;95062.34;;;2.62;100.00
11878;BME280;5998;42.676;23.268;2023-02-03T00:43:50;95048.19;;;2.43;100.00
11878;BME280;5998;42.676;23.268;2023-02-03T00:46:16;95072.63;;;2.45;100.00
11878;BME280;5998;42.676;23.268;2023-02-03T00:48:43;95067.88;;;2.42;100.00
11878;BME280;5998;42.676;23.268;2023-02-03T00:51:10;95063.91;;;2.39;100.00
11878;BME280;5998;42.676;23.268;2023-02-03T00:53:36;95061.06;;;2.36;100.00
11878;BME280;5998;42.676;23.268;2023-02-03T00:56:03;95069.78;;;2.36;100.00
11878;BME280;5998;42.676;23.268;2023-02-03T00:58:36;95067.97;;;2.32;100.00
11878;BME280;5998;42.676;23.268;2023-02-03T01:01:04;95071.25;;;2.48;100.00
11878;BME280;5998;42.676;23.268;2023-02-03T01:03:31;95081.44;;;2.41;100.00
11878;BME280;5998;42.676;23.268;2023-02-03T01:06:07;95099.44;;;2.49;100.00
11878;BME280;5998;42.676;23.268;2023-02-03T01:08:34;95098.41;;;2.45;100.00
11878;BME280;5998;42.676;23.268;2023-02-03T01:11:05;95100.78;;;2.46;100.00
11878;BME280;5998;42.676;23.268;2023-02-03T01:13:31;95102.72;;;2.41;100.00
11878;BME280;5998;42.676;23.268;2023-02-03T01:15:58;95089.69;;;2.39;100.00
11878;BME280;5998;42.676;23.268;2023-02-03T01:18:26;95091.34;;;2.35;100.00
11878;BME280;5998;42.676;23.268;2023-02-03T01:20:53;95090.59;;;2.29;100.00
11878;BME280;5998;42.676;23.268;2023-02-03T01:23:20;95089.28;;;2.27;100.00
11878;BME280;5998;42.676;23.268;2023-02-03T01:25:46;95094.03;;;2.30;100.00
11878;BME280;5998;42.676;23.268;2023-02-03T01:28:13;95092.34;;;2.39;100.00
11878;BME280;5998;42.676;23.268;2023-02-03T01:30:39;95078.06;;;2.35;100.00
11878;BME280;5998;42.676;23.268;2023-02-03T01:33:06;95072.13;;;2.14;100.00
11878;BME280;5998;42.676;23.268;2023-02-03T01:35:34;95093.50;;;2.33;100.00
11878;BME280;5998;42.676;23.268;2023-02-03T01:38:01;95086.94;;;2.20;100.00
11878;BME280;5998;42.676;23.268;2023-02-03T01:40:28;95078.72;;;2.22;100.00
11878;BME280;5998;42.676;23.268;2023-02-03T01:42:54;95092.75;;;2.27;100.00
11878;BME280;5998;42.676;23.268;2023-02-03T01:45:21;95087.31;;;2.09;100.00
11878;BME280;5998;42.676;23.268;2023-02-03T01:47:50;95099.28;;;2.06;100.00
11878;BME280;5998;42.676;23.268;2023-02-03T01:50:20;95099.69;;;1.95;100.00
11878;BME280;5998;42.676;23.268;2023-02-03T01:52:52;95067.09;;;1.84;100.00
11878;BME280;5998;42.676;23.268;2023-02-03T01:55:25;95107.59;;;2.00;100.00
11878;BME280;5998;42.676;23.268;2023-02-03T01:57:56;95113.47;;;1.97;100.00
11878;BME280;5998;42.676;23.268;2023-02-03T02:00:24;95079.91;;;1.77;100.00
11878;BME280;5998;42.676;23.268;2023-02-03T02:02:51;95081.69;;;1.87;100.00
11878;BME280;5998;42.676;23.268;2023-02-03T02:05:22;95079.44;;;1.99;100.00
11878;BME280;5998;42.676;23.268;2023-02-03T02:07:52;95100.34;;;2.10;100.00
11878;BME280;5998;42.676;23.268;2023-02-03T02:10:20;95101.53;;;2.23;100.00
11878;BME280;5998;42.676;23.268;2023-02-03T02:12:47;95104.53;;;2.16;100.00
11878;BME280;5998;42.676;23.268;2023-02-03T02:15:14;95100.78;;;2.17;100.00
11878;BME280;5998;42.676;23.268;2023-02-03T02:18:12;95122.28;;;2.21;100.00
11878;BME280;5998;42.676;23.268;2023-02-03T02:21:11;95120.69;;;2.20;100.00
11878;BME280;5998;42.676;23.268;2023-02-03T02:24:04;95124.25;;;2.10;100.00
11878;BME280;5998;42.676;23.268;2023-02-03T02:26:53;95129.50;;;2.15;100.00
11878;BME280;5998;42.676;23.268;2023-02-03T02:32:29;95130.84;;;2.13;100.00
11878;BME280;5998;42.676;23.268;2023-02-03T02:35:04;95132.47;;;2.09;100.00
11878;BME280;5998;42.676;23.268;2023-02-03T02:37:42;95118.44;;;2.08;100.00
11878;BME280;5998;42.676;23.268;2023-02-03T02:40:17;95116.03;;;2.07;100.00
11878;BME280;5998;42.676;23.268;2023-02-03T02:42:58;95127.41;;;2.12;100.00
11878;BME280;5998;42.676;23.268;2023-02-03T02:45:30;95117.69;;;2.03;100.00
11878;BME280;5998;42.676;23.268;2023-02-03T02:48:03;95112.56;;;2.11;100.00
11878;BME280;5998;42.676;23.268;2023-02-03T02:50:34;95112.81;;;2.10;100.00
11878;BME280;5998;42.676;23.268;2023-02-03T02:53:03;95118.69;;;2.07;100.00
11878;BME280;5998;42.676;23.268;2023-02-03T02:55:32;95131.69;;;2.08;100.00
11878;BME280;5998;42.676;23.268;2023-02-03T02:58:04;95133.06;;;2.06;100.00
11878;BME280;5998;42.676;23.268;2023-02-03T03:00:34;95143.38;;;2.07;100.00
11878;BME280;5998;42.676;23.268;2023-02-03T03:03:11;95142.31;;;2.08;100.00
11878;BME280;5998;42.676;23.268;2023-02-03T03:05:41;95147.34;;;2.10;100.00
11878;BME280;5998;42.676;23.268;2023-02-03T03:08:12;95153.16;;;2.12;100.00
11878;BME280;5998;42.676;23.268;2023-02-03T03:10:40;95154.75;;;2.13;100.00
11878;BME280;5998;42.676;23.268;2023-02-03T03:13:10;95142.84;;;2.10;100.00
11878;BME280;5998;42.676;23.268;2023-02-03T03:15:39;95149.00;;;2.06;100.00
11878;BME280;5998;42.676;23.268;2023-02-03T03:18:10;95154.06;;;2.02;100.00
11878;BME280;5998;42.676;23.268;2023-02-03T03:20:40;95165.19;;;2.04;100.00
11878;BME280;5998;42.676;23.268;2023-02-03T03:23:17;95158.31;;;1.98;100.00
11878;BME280;5998;42.676;23.268;2023-02-03T03:25:48;95161.78;;;1.99;100.00
11878;BME280;5998;42.676;23.268;2023-02-03T03:28:24;95158.31;;;2.03;100.00
11878;BME280;5998;42.676;23.268;2023-02-03T03:30:53;95175.56;;;2.01;100.00
11878;BME280;5998;42.676;23.268;2023-02-03T03:33:21;95163.41;;;1.95;100.00
11878;BME280;5998;42.676;23.268;2023-02-03T03:35:53;95170.25;;;2.01;100.00
11878;BME280;5998;42.676;23.268;2023-02-03T03:38:25;95167.69;;;1.91;100.00
11878;BME280;5998;42.676;23.268;2023-02-03T03:41:01;95159.41;;;1.97;100.00
11878;BME280;5998;42.676;23.268;2023-02-03T03:43:31;95166.31;;;1.93;100.00
11878;BME280;5998;42.676;23.268;2023-02-03T03:46:02;95168.47;;;1.91;100.00
11878;BME280;5998;42.676;23.268;2023-02-03T03:48:36;95143.56;;;1.82;100.00
11878;BME280;5998;42.676;23.268;2023-02-03T03:51:08;95168.69;;;2.00;100.00
11878;BME280;5998;42.676;23.268;2023-02-03T03:53:38;95150.69;;;1.92;100.00
11878;BME280;5998;42.676;23.268;2023-02-03T03:56:08;95142.56;;;1.78;100.00
11878;BME280;5998;42.676;23.268;2023-02-03T03:58:41;95152.03;;;1.84;100.00
11878;BME280;5998;42.676;23.268;2023-02-03T04:01:12;95151.53;;;1.82;100.00
11878;BME280;5998;42.676;23.268;2023-02-03T04:03:43;95133.59;;;1.69;100.00
11878;BME280;5998;42.676;23.268;2023-02-03T04:06:12;95151.31;;;1.73;100.00
11878;BME280;5998;42.676;23.268;2023-02-03T04:08:38;95164.06;;;1.76;100.00
11878;BME280;5998;42.676;23.268;2023-02-03T04:11:06;95157.72;;;1.72;100.00
11878;BME280;5998;42.676;23.268;2023-02-03T04:13:32;95158.03;;;1.66;100.00
11878;BME280;5998;42.676;23.268;2023-02-03T04:15:59;95156.50;;;1.55;100.00
11878;BME280;5998;42.676;23.268;2023-02-03T04:18:26;95170.19;;;1.72;100.00
11878;BME280;5998;42.676;23.268;2023-02-03T04:20:54;95171.00;;;1.72;100.00
11878;BME280;5998;42.676;23.268;2023-02-03T04:23:20;95172.91;;;1.62;100.00
11878;BME280;5998;42.676;23.268;2023-02-03T04:25:47;95178.19;;;1.67;100.00
11878;BME280;5998;42.676;23.268;2023-02-03T04:28:14;95147.50;;;1.46;100.00
11878;BME280;5998;42.676;23.268;2023-02-03T04:30:40;95186.19;;;1.62;100.00
11878;BME280;5998;42.676;23.268;2023-02-03T04:33:07;95186.13;;;1.72;100.00
11878;BME280;5998;42.676;23.268;2023-02-03T04:35:34;95186.69;;;1.64;100.00
11878;BME280;5998;42.676;23.268;2023-02-03T04:38:03;95194.91;;;1.62;100.00
11878;BME280;5998;42.676;23.268;2023-02-03T04:40:29;95193.34;;;1.61;100.00
11878;BME280;5998;42.676;23.268;2023-02-03T04:42:56;95197.09;;;1.55;100.00
11878;BME280;5998;42.676;23.268;2023-02-03T04:45:23;95206.38;;;1.58;100.00
11878;BME280;5998;42.676;23.268;2023-02-03T04:47:50;95198.13;;;1.59;100.00
11878;BME280;5998;42.676;23.268;2023-02-03T04:50:18;95211.97;;;1.51;100.00
11878;BME280;5998;42.676;23.268;2023-02-03T04:52:45;95204.81;;;1.52;100.00
11878;BME280;5998;42.676;23.268;2023-02-03T04:55:13;95200.31;;;1.47;100.00
11878;BME280;5998;42.676;23.268;2023-02-03T04:57:39;95216.16;;;1.62;100.00
11878;BME280;5998;42.676;23.268;2023-02-03T05:00:07;95221.47;;;1.67;100.00
11878;BME280;5998;42.676;23.268;2023-02-03T05:02:34;95221.69;;;1.71;100.00
11878;BME280;5998;42.676;23.268;2023-02-03T05:05:00;95225.44;;;1.65;100.00
11878;BME280;5998;42.676;23.268;2023-02-03T05:07:27;95227.56;;;1.63;100.00
11878;BME280;5998;42.676;23.268;2023-02-03T05:09:54;95220.94;;;1.60;100.00
11878;BME280;5998;42.676;23.268;2023-02-03T05:12:22;95211.16;;;1.56;100.00
11878;BME280;5998;42.676;23.268;2023-02-03T05:14:49;95233.66;;;1.68;100.00
11878;BME280;5998;42.676;23.268;2023-02-03T05:17:15;95211.72;;;1.48;100.00
11878;BME280;5998;42.676;23.268;2023-02-03T05:19:42;95245.34;;;1.62;100.00
11878;BME280;5998;42.676;23.268;2023-02-03T05:22:09;95247.22;;;1.67;100.00
11878;BME280;5998;42.676;23.268;2023-02-03T05:24:35;95256.25;;;1.61;100.00
11878;BME280;5998;42.676;23.268;2023-02-03T05:27:02;95259.13;;;1.69;100.00
11878;BME280;5998;42.676;23.268;2023-02-03T05:29:30;95265.50;;;1.68;100.00
11878;BME280;5998;42.676;23.268;2023-02-03T05:31:57;95261.28;;;1.67;100.00
11878;BME280;5998;42.676;23.268;2023-02-03T05:34:24;95272.66;;;1.68;100.00
11878;BME280;5998;42.676;23.268;2023-02-03T05:36:50;95275.03;;;1.74;100.00
11878;BME280;5998;42.676;23.268;2023-02-03T05:39:17;95276.63;;;1.70;100.00
11878;BME280;5998;42.676;23.268;2023-02-03T05:41:44;95245.41;;;1.52;100.00
11878;BME280;5998;42.676;23.268;2023-02-03T05:44:18;95275.31;;;1.68;100.00
11878;BME280;5998;42.676;23.268;2023-02-03T05:46:47;95265.25;;;1.70;100.00
11878;BME280;5998;42.676;23.268;2023-02-03T05:49:14;95267.69;;;1.56;100.00
11878;BME280;5998;42.676;23.268;2023-02-03T05:51:41;95265.28;;;1.60;100.00
11878;BME280;5998;42.676;23.268;2023-02-03T05:54:08;95279.84;;;1.62;100.00
11878;BME280;5998;42.676;23.268;2023-02-03T05:56:36;95286.75;;;1.63;100.00
11878;BME280;5998;42.676;23.268;2023-02-03T05:59:03;95280.38;;;1.59;100.00
11878;BME280;5998;42.676;23.268;2023-02-03T06:01:29;95295.81;;;1.57;100.00
11878;BME280;5998;42.676;23.268;2023-02-03T06:03:58;95275.66;;;1.56;100.00
11878;BME280;5998;42.676;23.268;2023-02-03T06:06:25;95283.31;;;1.58;100.00
11878;BME280;5998;42.676;23.268;2023-02-03T06:08:57;95298.19;;;1.59;100.00
11878;BME280;5998;42.676;23.268;2023-02-03T06:11:24;95299.75;;;1.70;100.00
11878;BME280;5998;42.676;23.268;2023-02-03T06:13:50;95289.91;;;1.70;100.00
11878;BME280;5998;42.676;23.268;2023-02-03T06:16:17;95293.59;;;1.79;100.00
11878;BME280;5998;42.676;23.268;2023-02-03T06:18:44;95295.13;;;1.91;100.00
11878;BME280;5998;42.676;23.268;2023-02-03T06:21:12;95296.66;;;2.02;100.00
11878;BME280;5998;42.676;23.268;2023-02-03T06:23:39;95294.81;;;2.02;100.00
11878;BME280;5998;42.676;23.268;2023-02-03T06:26:06;95308.31;;;2.11;100.00
11878;BME280;5998;42.676;23.268;2023-02-03T06:28:32;95303.72;;;2.21;100.00
11878;BME280;5998;42.676;23.268;2023-02-03T06:30:59;95306.59;;;2.30;100.00
11878;BME280;5998;42.676;23.268;2023-02-03T06:33:26;95305.00;;;2.29;100.00
11878;BME280;5998;42.676;23.268;2023-02-03T06:35:52;95313.22;;;2.32;100.00
11878;BME280;5998;42.676;23.268;2023-02-03T06:38:21;95296.22;;;2.28;100.00
11878;BME280;5998;42.676;23.268;2023-02-03T06:40:48;95299.59;;;2.44;100.00
11878;BME280;5998;42.676;23.268;2023-02-03T06:43:15;95295.25;;;2.53;100.00
11878;BME280;5998;42.676;23.268;2023-02-03T06:45:45;95313.78;;;2.68;100.00
11878;BME280;5998;42.676;23.268;2023-02-03T06:48:12;95318.97;;;2.83;100.00
11878;BME280;5998;42.676;23.268;2023-02-03T06:50:39;95320.47;;;2.94;100.00
11878;BME280;5998;42.676;23.268;2023-02-03T06:53:06;95323.25;;;2.79;100.00
11878;BME280;5998;42.676;23.268;2023-02-03T06:55:34;95337.13;;;3.05;100.00
11878;BME280;5998;42.676;23.268;2023-02-03T06:58:01;95331.34;;;2.98;100.00
11878;BME280;5998;42.676;23.268;2023-02-03T07:00:27;95329.72;;;3.02;100.00
11878;BME280;5998;42.676;23.268;2023-02-03T07:02:55;95335.69;;;3.18;100.00
11878;BME280;5998;42.676;23.268;2023-02-03T07:05:23;95312.19;;;3.01;100.00
11878;BME280;5998;42.676;23.268;2023-02-03T07:07:50;95327.56;;;3.33;100.00
11878;BME280;5998;42.676;23.268;2023-02-03T07:10:17;95335.91;;;3.50;100.00
11878;BME280;5998;42.676;23.268;2023-02-03T07:12:45;95324.44;;;3.78;100.00
11878;BME280;5998;42.676;23.268;2023-02-03T07:15:12;95308.97;;;3.56;100.00
11878;BME280;5998;42.676;23.268;2023-02-03T07:17:39;95348.91;;;3.80;100.00
11878;BME280;5998;42.676;23.268;2023-02-03T07:20:06;95340.09;;;3.80;100.00
11878;BME280;5998;42.676;23.268;2023-02-03T07:22:33;95332.47;;;3.97;100.00
11878;BME280;5998;42.676;23.268;2023-02-03T07:25:00;95340.38;;;4.02;100.00
11878;BME280;5998;42.676;23.268;2023-02-03T07:27:27;95346.81;;;4.01;100.00
11878;BME280;5998;42.676;23.268;2023-02-03T07:29:55;95344.88;;;3.83;100.00
11878;BME280;5998;42.676;23.268;2023-02-03T07:32:22;95345.25;;;3.71;100.00
11878;BME280;5998;42.676;23.268;2023-02-03T07:34:49;95348.56;;;3.87;100.00
11878;BME280;5998;42.676;23.268;2023-02-03T07:37:15;95357.47;;;3.77;100.00
11878;BME280;5998;42.676;23.268;2023-02-03T07:39:42;95354.91;;;3.67;100.00
11878;BME280;5998;42.676;23.268;2023-02-03T07:42:10;95359.56;;;3.80;100.00
11878;BME280;5998;42.676;23.268;2023-02-03T07:44:37;95363.34;;;3.74;100.00
11878;BME280;5998;42.676;23.268;2023-02-03T07:47:05;95370.56;;;3.45;100.00
11878;BME280;5998;42.676;23.268;2023-02-03T07:49:31;95372.50;;;3.63;100.00
11878;BME280;5998;42.676;23.268;2023-02-03T07:51:58;95356.44;;;3.73;100.00
11878;BME280;5998;42.676;23.268;2023-02-03T07:54:25;95364.72;;;3.72;100.00
11878;BME280;5998;42.676;23.268;2023-02-03T07:56:51;95362.56;;;3.97;100.00
11878;BME280;5998;42.676;23.268;2023-02-03T07:59:18;95360.22;;;3.91;100.00
11878;BME280;5998;42.676;23.268;2023-02-03T08:01:45;95370.06;;;3.95;100.00
11878;BME280;5998;42.676;23.268;2023-02-03T08:04:13;95381.03;;;4.12;100.00
11878;BME280;5998;42.676;23.268;2023-02-03T08:06:41;95342.69;;;3.90;100.00
11878;BME280;5998;42.676;23.268;2023-02-03T08:09:08;95377.91;;;4.05;100.00
11878;BME280;5998;42.676;23.268;2023-02-03T08:11:34;95355.25;;;4.08;100.00
11878;BME280;5998;42.676;23.268;2023-02-03T08:14:01;95361.47;;;4.22;100.00
11878;BME280;5998;42.676;23.268;2023-02-03T08:16:28;95364.47;;;4.15;100.00
11878;BME280;5998;42.676;23.268;2023-02-03T08:18:55;95364.81;;;3.85;100.00
11878;BME280;5998;42.676;23.268;2023-02-03T08:21:23;95359.28;;;3.82;100.00
11878;BME280;5998;42.676;23.268;2023-02-03T08:23:50;95365.50;;;3.72;100.00
11878;BME280;5998;42.676;23.268;2023-02-03T08:26:16;95364.44;;;3.73;100.00
11878;BME280;5998;42.676;23.268;2023-02-03T08:28:47;95365.00;;;3.70;100.00
11878;BME280;5998;42.676;23.268;2023-02-03T08:31:14;95359.38;;;3.72;100.00
11878;BME280;5998;42.676;23.268;2023-02-03T08:33:40;95352.31;;;3.86;100.00
11878;BME280;5998;42.676;23.268;2023-02-03T08:36:08;95371.00;;;3.81;100.00
11878;BME280;5998;42.676;23.268;2023-02-03T08:38:36;95384.00;;;3.87;100.00
11878;BME280;5998;42.676;23.268;2023-02-03T08:41:08;95377.69;;;3.78;100.00
11878;BME280;5998;42.676;23.268;2023-02-03T08:43:36;95381.22;;;3.97;100.00
11878;BME280;5998;42.676;23.268;2023-02-03T08:46:03;95399.25;;;4.05;100.00
11878;BME280;5998;42.676;23.268;2023-02-03T08:48:30;95399.13;;;3.92;100.00
11878;BME280;5998;42.676;23.268;2023-02-03T08:50:57;95409.59;;;4.07;100.00
11878;BME280;5998;42.676;23.268;2023-02-03T08:53:24;95348.78;;;3.67;100.00
11878;BME280;5998;42.676;23.268;2023-02-03T08:55:52;95384.72;;;3.69;100.00
11878;BME280;5998;42.676;23.268;2023-02-03T08:58:20;95412.75;;;3.62;100.00
11878;BME280;5998;42.676;23.268;2023-02-03T09:00:47;95400.31;;;3.52;100.00
11878;BME280;5998;42.676;23.268;2023-02-03T09:03:14;95418.53;;;3.40;100.00
11878;BME280;5998;42.676;23.268;2023-02-03T09:05:40;95410.41;;;3.55;100.00
11878;BME280;5998;42.676;23.268;2023-02-03T09:08:07;95403.53;;;3.49;100.00
11878;BME280;5998;42.676;23.268;2023-02-03T09:10:35;95407.66;;;3.65;100.00
11878;BME280;5998;42.676;23.268;2023-02-03T09:13:03;95406.88;;;3.65;100.00
11878;BME280;5998;42.676;23.268;2023-02-03T09:15:29;95403.84;;;3.76;100.00
11878;BME280;5998;42.676;23.268;2023-02-03T09:17:56;95388.97;;;3.70;100.00
11878;BME280;5998;42.676;23.268;2023-02-03T09:20:23;95366.25;;;3.78;100.00
11878;BME280;5998;42.676;23.268;2023-02-03T09:22:50;95398.28;;;4.20;100.00
11878;BME280;5998;42.676;23.268;2023-02-03T09:25:19;95410.06;;;4.14;100.00
11878;BME280;5998;42.676;23.268;2023-02-03T09:27:45;95403.78;;;4.05;100.00
11878;BME280;5998;42.676;23.268;2023-02-03T09:30:14;95385.75;;;3.97;100.00
11878;BME280;5998;42.676;23.268;2023-02-03T09:32:41;95396.00;;;4.08;100.00
11878;BME280;5998;42.676;23.268;2023-02-03T09:35:07;95391.31;;;4.00;100.00
11878;BME280;5998;42.676;23.268;2023-02-03T09:37:34;95398.50;;;4.00;100.00
11878;BME280;5998;42.676;23.268;2023-02-03T09:40:01;95392.66;;;3.98;100.00
11878;BME280;5998;42.676;23.268;2023-02-03T09:45:23;95404.28;;;4.07;100.00
11878;BME280;5998;42.676;23.268;2023-02-03T09:47:52;95391.88;;;3.97;100.00
11878;BME280;5998;42.676;23.268;2023-02-03T09:50:21;95374.78;;;3.98;100.00
11878;BME280;5998;42.676;23.268;2023-02-03T09:52:49;95396.28;;;4.07;100.00
11878;BME280;5998;42.676;23.268;2023-02-03T09:55:25;95395.81;;;4.24;100.00
11878;BME280;5998;42.676;23.268;2023-02-03T09:58:00;95370.28;;;4.17;100.00
11878;BME280;5998;42.676;23.268;2023-02-03T10:00:34;95382.22;;;4.25;100.00
11878;BME280;5998;42.676;23.268;2023-02-03T10:03:06;95388.94;;;4.41;100.00
11878;BME280;5998;42.676;23.268;2023-02-03T10:05:50;95375.03;;;4.44;100.00
11878;BME280;5998;42.676;23.268;2023-02-03T10:08:29;95374.38;;;4.71;100.00
11878;BME280;5998;42.676;23.268;2023-02-03T10:11:05;95369.44;;;4.83;100.00
11878;BME280;5998;42.676;23.268;2023-02-03T10:13:46;95367.19;;;4.71;100.00
11878;BME280;5998;42.676;23.268;2023-02-03T10:16:27;95367.31;;;4.43;100.00
11878;BME280;5998;42.676;23.268;2023-02-03T10:19:01;95351.75;;;4.50;100.00
11878;BME280;5998;42.676;23.268;2023-02-03T10:21:35;95351.19;;;4.53;100.00
11878;BME280;5998;42.676;23.268;2023-02-03T10:24:08;95349.16;;;4.82;100.00
11878;BME280;5998;42.676;23.268;2023-02-03T10:26:37;95345.69;;;5.32;100.00
11878;BME280;5998;42.676;23.268;2023-02-03T10:29:11;95338.09;;;5.67;100.00
11878;BME280;5998;42.676;23.268;2023-02-03T10:31:44;95318.50;;;5.71;100.00
11878;BME280;5998;42.676;23.268;2023-02-03T10:34:13;95349.63;;;5.94;100.00
11878;BME280;5998;42.676;23.268;2023-02-03T10:36:52;95338.09;;;5.67;100.00
11878;BME280;5998;42.676;23.268;2023-02-03T10:39:26;95335.78;;;5.47;100.00
11878;BME280;5998;42.676;23.268;2023-02-03T10:41:55;95333.78;;;4.93;100.00
11878;BME280;5998;42.676;23.268;2023-02-03T10:44:25;95341.72;;;4.79;100.00
11878;BME280;5998;42.676;23.268;2023-02-03T10:46:56;95344.75;;;4.72;100.00
11878;BME280;5998;42.676;23.268;2023-02-03T10:49:26;95342.81;;;4.59;100.00
11878;BME280;5998;42.676;23.268;2023-02-03T10:51:58;95367.69;;;4.55;100.00
11878;BME280;5998;42.676;23.268;2023-02-03T10:54:30;95352.84;;;4.49;98.58
11878;BME280;5998;42.676;23.268;2023-02-03T10:57:02;95348.66;;;4.43;96.56
11878;BME280;5998;42.676;23.268;2023-02-03T10:59:32;95346.56;;;4.40;96.54
11878;BME280;5998;42.676;23.268;2023-02-03T11:02:07;95354.50;;;4.45;96.97
11878;BME280;5998;42.676;23.268;2023-02-03T11:04:37;95353.91;;;4.29;99.39
11878;BME280;5998;42.676;23.268;2023-02-03T11:07:06;95348.56;;;4.29;99.18
11878;BME280;5998;42.676;23.268;2023-02-03T11:09:35;95340.00;;;4.51;100.00
11878;BME280;5998;42.676;23.268;2023-02-03T11:12:08;95340.38;;;4.63;100.00
11878;BME280;5998;42.676;23.268;2023-02-03T11:14:38;95379.91;;;4.37;100.00
11878;BME280;5998;42.676;23.268;2023-02-03T11:17:07;95352.88;;;4.06;100.00
11878;BME280;5998;42.676;23.268;2023-02-03T11:19:36;95337.34;;;3.90;100.00
11878;BME280;5998;42.676;23.268;2023-02-03T11:22:05;95335.31;;;3.82;100.00
11878;BME280;5998;42.676;23.268;2023-02-03T11:24:33;95334.22;;;3.83;100.00
11878;BME280;5998;42.676;23.268;2023-02-03T11:27:04;95341.31;;;3.92;100.00
11878;BME280;5998;42.676;23.268;2023-02-03T11:29:34;95317.38;;;4.11;100.00
11878;BME280;5998;42.676;23.268;2023-02-03T11:32:04;95313.84;;;4.34;100.00
11878;BME280;5998;42.676;23.268;2023-02-03T11:34:35;95321.63;;;4.49;100.00
11878;BME280;5998;42.676;23.268;2023-02-03T11:37:22;95309.66;;;4.65;96.19
11878;BME280;5998;42.676;23.268;2023-02-03T11:39:54;95310.47;;;4.47;93.94
11878;BME280;5998;42.676;23.268;2023-02-03T11:42:21;95303.78;;;4.50;95.15
11878;BME280;5998;42.676;23.268;2023-02-03T11:44:48;95307.50;;;4.49;94.93
11878;BME280;5998;42.676;23.268;2023-02-03T11:47:16;95312.25;;;4.70;94.29
11878;BME280;5998;42.676;23.268;2023-02-03T11:50:15;95296.34;;;4.47;88.42
11878;BME280;5998;42.676;23.268;2023-02-03T11:52:56;95306.78;;;4.43;90.29
11878;BME280;5998;42.676;23.268;2023-02-03T11:55:32;95280.94;;;4.76;87.73
11878;BME280;5998;42.676;23.268;2023-02-03T11:58:17;95295.91;;;5.23;85.13
11878;BME280;5998;42.676;23.268;2023-02-03T12:00:56;95296.91;;;5.27;77.87
11878;BME280;5998;42.676;23.268;2023-02-03T12:06:34;95294.16;;;5.32;75.79
11878;BME280;5998;42.676;23.268;2023-02-03T12:09:21;95284.63;;;5.26;70.78
11878;BME280;5998;42.676;23.268;2023-02-03T12:12:03;95282.53;;;5.09;71.92
11878;BME280;5998;42.676;23.268;2023-02-03T12:14:45;95294.19;;;4.81;72.23
11878;BME280;5998;42.676;23.268;2023-02-03T12:20:23;95290.16;;;4.33;74.55
11878;BME280;5998;42.676;23.268;2023-02-03T12:23:04;95289.72;;;4.44;76.31
11878;BME280;5998;42.676;23.268;2023-02-03T12:25:43;95273.13;;;4.29;72.80
11878;BME280;5998;42.676;23.268;2023-02-03T12:28:25;95293.22;;;4.40;72.94
11878;BME280;5998;42.676;23.268;2023-02-03T12:30:59;95299.78;;;4.29;72.66
11878;BME280;5998;42.676;23.268;2023-02-03T12:33:31;95251.47;;;4.16;73.80
11878;BME280;5998;42.676;23.268;2023-02-03T12:36:05;95283.09;;;4.42;74.37
11878;BME280;5998;42.676;23.268;2023-02-03T12:38:38;95272.00;;;4.67;74.42
11878;BME280;5998;42.676;23.268;2023-02-03T12:41:09;95285.69;;;4.79;73.91
11878;BME280;5998;42.676;23.268;2023-02-03T12:43:38;95294.22;;;4.62;72.86
11878;BME280;5998;42.676;23.268;2023-02-03T12:46:11;95279.97;;;4.53;76.81
11878;BME280;5998;42.676;23.268;2023-02-03T12:48:47;95289.19;;;4.24;76.42
11878;BME280;5998;42.676;23.268;2023-02-03T12:51:27;95280.63;;;4.08;82.13
11878;BME280;5998;42.676;23.268;2023-02-03T12:54:01;95276.44;;;4.02;84.80
11878;BME280;5998;42.676;23.268;2023-02-03T12:56:36;95281.53;;;3.98;85.87
11878;BME280;5998;42.676;23.268;2023-02-03T12:59:10;95277.09;;;3.94;87.57
11878;BME280;5998;42.676;23.268;2023-02-03T13:01:45;95252.03;;;3.76;92.27
11878;BME280;5998;42.676;23.268;2023-02-03T13:04:20;95263.75;;;3.94;94.12
11878;BME280;5998;42.676;23.268;2023-02-03T13:06:56;95267.84;;;3.86;95.72
11878;BME280;5998;42.676;23.268;2023-02-03T13:09:32;95262.06;;;3.79;98.27
11878;BME280;5998;42.676;23.268;2023-02-03T13:12:06;95269.78;;;3.81;99.78
11878;BME280;5998;42.676;23.268;2023-02-03T13:14:40;95260.69;;;3.63;100.00
11878;BME280;5998;42.676;23.268;2023-02-03T13:17:14;95271.56;;;3.67;100.00
11878;BME280;5998;42.676;23.268;2023-02-03T13:19:44;95264.28;;;3.53;100.00
11878;BME280;5998;42.676;23.268;2023-02-03T13:22:13;95267.88;;;3.63;100.00
11878;BME280;5998;42.676;23.268;2023-02-03T13:24:44;95233.53;;;3.42;100.00
11878;BME280;5998;42.676;23.268;2023-02-03T13:27:25;95255.88;;;3.65;100.00
11878;BME280;5998;42.676;23.268;2023-02-03T13:30:07;95265.28;;;3.81;100.00